sensor_id;sensor_type;location;lat;lon;timestamp;temperature;humidity
2893;DHT22;1456;51.840;12.184;2023-07-09T00:00:55;21.60;76.40
2893;DHT22;1456;51.840;12.184;2023-07-09T00:03:38;21.60;76.60
2893;DHT22;1456;51.840;12.184;2023-07-09T00:06:04;21.60;76.00
2893;DHT22;1456;51.840;12.184;2023-07-09T00:08:34;21.50;78.20
2893;DHT22;1456;51.840;12.184;2023-07-09T00:13:33;21.50;77.10
2893;DHT22;1456;51.840;12.184;2023-07-09T00:16:00;21.50;77.50
2893;DHT22;1456;51.840;12.184;2023-07-09T00:18:29;21.40;76.10
2893;DHT22;1456;51.840;12.184;2023-07-09T00:26:08;21.40;77.10
2893;DHT22;1456;51.840;12.184;2023-07-09T00:31:16;21.40;76.30
2893;DHT22;1456;51.840;12.184;2023-07-09T00:33:44;21.40;78.20
2893;DHT22;1456;51.840;12.184;2023-07-09T00:39:19;21.30;76.80
2893;DHT22;1456;51.840;12.184;2023-07-09T00:41:51;21.30;80.90
2893;DHT22;1456;51.840;12.184;2023-07-09T00:44:26;21.30;80.60
2893;DHT22;1456;51.840;12.184;2023-07-09T00:47:11;21.30;80.90
2893;DHT22;1456;51.840;12.184;2023-07-09T00:52:28;21.20;80.00
2893;DHT22;1456;51.840;12.184;2023-07-09T00:57:28;21.20;82.30
2893;DHT22;1456;51.840;12.184;2023-07-09T01:00:03;21.10;83.60
2893;DHT22;1456;51.840;12.184;2023-07-09T01:02:47;21.20;84.50
2893;DHT22;1456;51.840;12.184;2023-07-09T01:07:49;21.10;84.80
2893;DHT22;1456;51.840;12.184;2023-07-09T01:10:21;21.10;87.30
2893;DHT22;1456;51.840;12.184;2023-07-09T01:12:48;21.10;84.80
2893;DHT22;1456;51.840;12.184;2023-07-09T01:15:17;21.00;86.20
2893;DHT22;1456;51.840;12.184;2023-07-09T01:17:43;21.00;86.40
2893;DHT22;1456;51.840;12.184;2023-07-09T01:23:05;20.90;86.00
2893;DHT22;1456;51.840;12.184;2023-07-09T01:25:44;20.90;87.20
2893;DHT22;1456;51.840;12.184;2023-07-09T01:28:10;20.80;87.50
2893;DHT22;1456;51.840;12.184;2023-07-09T01:30:39;20.80;87.70
2893;DHT22;1456;51.840;12.184;2023-07-09T01:33:08;20.70;89.80
2893;DHT22;1456;51.840;12.184;2023-07-09T01:38:14;20.70;89.40
2893;DHT22;1456;51.840;12.184;2023-07-09T01:43:12;20.60;90.20
2893;DHT22;1456;51.840;12.184;2023-07-09T01:48:16;20.60;91.50
2893;DHT22;1456;51.840;12.184;2023-07-09T01:50:43;20.50;92.30
2893;DHT22;1456;51.840;12.184;2023-07-09T01:53:11;20.50;91.90
2893;DHT22;1456;51.840;12.184;2023-07-09T01:55:53;20.50;91.80
2893;DHT22;1456;51.840;12.184;2023-07-09T02:01:03;20.40;92.40
2893;DHT22;1456;51.840;12.184;2023-07-09T02:06:10;20.30;94.30
2893;DHT22;1456;51.840;12.184;2023-07-09T02:08:54;20.30;92.90
2893;DHT22;1456;51.840;12.184;2023-07-09T02:11:23;20.20;93.80
2893;DHT22;1456;51.840;12.184;2023-07-09T02:13:59;20.20;94.70
2893;DHT22;1456;51.840;12.184;2023-07-09T02:16:31;20.10;94.60
2893;DHT22;1456;51.840;12.184;2023-07-09T02:18:59;20.10;95.50
2893;DHT22;1456;51.840;12.184;2023-07-09T02:21:26;20.10;95.80
2893;DHT22;1456;51.840;12.184;2023-07-09T02:23:55;20.10;95.90
2893;DHT22;1456;51.840;12.184;2023-07-09T02:26:23;20.00;95.90
2893;DHT22;1456;51.840;12.184;2023-07-09T02:29:01;20.00;96.60
2893;DHT22;1456;51.840;12.184;2023-07-09T02:31:27;19.90;96.30
2893;DHT22;1456;51.840;12.184;2023-07-09T02:33:58;19.90;96.30
2893;DHT22;1456;51.840;12.184;2023-07-09T02:36:29;19.80;96.90
2893;DHT22;1456;51.840;12.184;2023-07-09T02:38:56;19.80;97.90
2893;DHT22;1456;51.840;12.184;2023-07-09T02:41:28;19.80;97.70
2893;DHT22;1456;51.840;12.184;2023-07-09T02:46:26;19.70;98.90
2893;DHT22;1456;51.840;12.184;2023-07-09T02:48:54;19.60;98.80
2893;DHT22;1456;51.840;12.184;2023-07-09T02:51:21;19.60;98.90
2893;DHT22;1456;51.840;12.184;2023-07-09T02:53:47;19.60;99.10
2893;DHT22;1456;51.840;12.184;2023-07-09T02:56:13;19.50;98.10
2893;DHT22;1456;51.840;12.184;2023-07-09T02:58:38;19.50;99.90
2893;DHT22;1456;51.840;12.184;2023-07-09T03:01:12;19.40;99.50
2893;DHT22;1456;51.840;12.184;2023-07-09T03:03:41;19.40;99.30
2893;DHT22;1456;51.840;12.184;2023-07-09T03:11:12;19.30;99.90
2893;DHT22;1456;51.840;12.184;2023-07-09T03:13:39;19.30;99.90
2893;DHT22;1456;51.840;12.184;2023-07-09T03:16:14;19.30;99.90
2893;DHT22;1456;51.840;12.184;2023-07-09T03:18:40;19.30;99.90
2893;DHT22;1456;51.840;12.184;2023-07-09T03:23:42;19.30;99.90
2893;DHT22;1456;51.840;12.184;2023-07-09T03:26:12;19.30;99.90
2893;DHT22;1456;51.840;12.184;2023-07-09T03:28:38;19.30;99.90
2893;DHT22;1456;51.840;12.184;2023-07-09T03:31:14;19.40;99.90
2893;DHT22;1456;51.840;12.184;2023-07-09T03:33:39;19.30;99.90
2893;DHT22;1456;51.840;12.184;2023-07-09T03:36:12;19.30;99.90
2893;DHT22;1456;51.840;12.184;2023-07-09T03:38:39;19.30;99.90
2893;DHT22;1456;51.840;12.184;2023-07-09T03:41:06;19.30;99.90
2893;DHT22;1456;51.840;12.184;2023-07-09T03:43:39;19.40;99.90
2893;DHT22;1456;51.840;12.184;2023-07-09T03:46:06;19.40;99.90
2893;DHT22;1456;51.840;12.184;2023-07-09T03:51:00;19.60;99.90
2893;DHT22;1456;51.840;12.184;2023-07-09T03:53:28;19.60;99.90
2893;DHT22;1456;51.840;12.184;2023-07-09T03:55:59;19.60;99.90
2893;DHT22;1456;51.840;12.184;2023-07-09T03:58:25;19.70;99.90
2893;DHT22;1456;51.840;12.184;2023-07-09T04:00:51;19.70;99.90
2893;DHT22;1456;51.840;12.184;2023-07-09T04:03:19;19.80;99.90
2893;DHT22;1456;51.840;12.184;2023-07-09T04:08:15;19.80;99.90
2893;DHT22;1456;51.840;12.184;2023-07-09T04:13:16;20.00;99.90
2893;DHT22;1456;51.840;12.184;2023-07-09T04:15:44;20.00;99.90
2893;DHT22;1456;51.840;12.184;2023-07-09T04:23:18;20.20;99.50
2893;DHT22;1456;51.840;12.184;2023-07-09T04:25:51;20.20;99.30
2893;DHT22;1456;51.840;12.184;2023-07-09T04:28:17;20.30;99.40
2893;DHT22;1456;51.840;12.184;2023-07-09T04:30:58;20.40;99.00
2893;DHT22;1456;51.840;12.184;2023-07-09T04:33:23;20.50;98.60
2893;DHT22;1456;51.840;12.184;2023-07-09T04:38:42;20.80;97.60
2893;DHT22;1456;51.840;12.184;2023-07-09T04:41:08;20.80;97.30
2893;DHT22;1456;51.840;12.184;2023-07-09T04:43:43;21.00;97.70
2893;DHT22;1456;51.840;12.184;2023-07-09T04:46:09;21.00;97.10
2893;DHT22;1456;51.840;12.184;2023-07-09T04:48:42;21.20;97.60
2893;DHT22;1456;51.840;12.184;2023-07-09T04:51:14;21.30;96.70
2893;DHT22;1456;51.840;12.184;2023-07-09T04:53:39;21.30;97.20
2893;DHT22;1456;51.840;12.184;2023-07-09T04:56:11;21.40;96.40
2893;DHT22;1456;51.840;12.184;2023-07-09T04:58:43;21.50;96.40
2893;DHT22;1456;51.840;12.184;2023-07-09T05:01:11;21.60;96.80
2893;DHT22;1456;51.840;12.184;2023-07-09T05:03:37;21.60;96.70
2893;DHT22;1456;51.840;12.184;2023-07-09T05:06:06;21.60;95.40
2893;DHT22;1456;51.840;12.184;2023-07-09T05:08:38;21.70;95.80
2893;DHT22;1456;51.840;12.184;2023-07-09T05:11:17;21.80;95.70
2893;DHT22;1456;51.840;12.184;2023-07-09T05:13:42;21.90;95.80
2893;DHT22;1456;51.840;12.184;2023-07-09T05:16:25;22.00;95.00
2893;DHT22;1456;51.840;12.184;2023-07-09T05:21:27;22.20;94.50
2893;DHT22;1456;51.840;12.184;2023-07-09T05:23:55;22.30;94.80
2893;DHT22;1456;51.840;12.184;2023-07-09T05:26:38;22.40;94.60
2893;DHT22;1456;51.840;12.184;2023-07-09T05:29:04;22.50;94.90
2893;DHT22;1456;51.840;12.184;2023-07-09T05:31:31;22.70;95.30
2893;DHT22;1456;51.840;12.184;2023-07-09T05:33:57;22.80;94.30
2893;DHT22;1456;51.840;12.184;2023-07-09T05:36:30;23.00;94.70
2893;DHT22;1456;51.840;12.184;2023-07-09T05:38:56;23.10;94.10
2893;DHT22;1456;51.840;12.184;2023-07-09T05:41:25;23.20;93.60
2893;DHT22;1456;51.840;12.184;2023-07-09T05:43:56;23.30;92.40
2893;DHT22;1456;51.840;12.184;2023-07-09T05:46:22;23.40;93.20
2893;DHT22;1456;51.840;12.184;2023-07-09T05:48:49;23.50;92.80
2893;DHT22;1456;51.840;12.184;2023-07-09T05:51:18;23.80;94.00
2893;DHT22;1456;51.840;12.184;2023-07-09T05:53:47;23.90;92.60
2893;DHT22;1456;51.840;12.184;2023-07-09T05:56:12;24.10;92.40
2893;DHT22;1456;51.840;12.184;2023-07-09T05:58:40;24.20;92.80
2893;DHT22;1456;51.840;12.184;2023-07-09T06:01:15;24.30;92.00
2893;DHT22;1456;51.840;12.184;2023-07-09T06:03:41;24.40;92.50
2893;DHT22;1456;51.840;12.184;2023-07-09T06:06:08;24.60;92.40
2893;DHT22;1456;51.840;12.184;2023-07-09T06:08:35;24.70;91.40
2893;DHT22;1456;51.840;12.184;2023-07-09T06:11:02;24.80;90.90
2893;DHT22;1456;51.840;12.184;2023-07-09T06:13:29;24.90;91.00
2893;DHT22;1456;51.840;12.184;2023-07-09T06:16:03;25.10;91.50
2893;DHT22;1456;51.840;12.184;2023-07-09T06:18:30;25.20;90.30
2893;DHT22;1456;51.840;12.184;2023-07-09T06:20:58;25.30;91.00
2893;DHT22;1456;51.840;12.184;2023-07-09T06:23:26;25.50;91.30
2893;DHT22;1456;51.840;12.184;2023-07-09T06:25:57;25.60;91.00
2893;DHT22;1456;51.840;12.184;2023-07-09T06:31:10;25.90;89.50
2893;DHT22;1456;51.840;12.184;2023-07-09T06:33:36;25.90;90.30
2893;DHT22;1456;51.840;12.184;2023-07-09T06:36:01;26.00;90.60
2893;DHT22;1456;51.840;12.184;2023-07-09T06:38:40;26.10;89.90
2893;DHT22;1456;51.840;12.184;2023-07-09T06:41:11;26.30;87.50
2893;DHT22;1456;51.840;12.184;2023-07-09T06:43:38;26.30;84.20
2893;DHT22;1456;51.840;12.184;2023-07-09T06:46:06;26.30;87.80
2893;DHT22;1456;51.840;12.184;2023-07-09T06:48:40;26.50;88.60
2893;DHT22;1456;51.840;12.184;2023-07-09T06:51:05;26.60;86.50
2893;DHT22;1456;51.840;12.184;2023-07-09T06:53:40;26.70;83.40
2893;DHT22;1456;51.840;12.184;2023-07-09T06:56:11;26.70;84.70
2893;DHT22;1456;51.840;12.184;2023-07-09T06:58:36;26.80;86.60
2893;DHT22;1456;51.840;12.184;2023-07-09T07:03:46;27.20;81.60
2893;DHT22;1456;51.840;12.184;2023-07-09T07:06:13;27.30;80.80
2893;DHT22;1456;51.840;12.184;2023-07-09T07:08:41;27.50;84.10
2893;DHT22;1456;51.840;12.184;2023-07-09T07:11:09;27.70;82.70
2893;DHT22;1456;51.840;12.184;2023-07-09T07:13:39;27.80;83.10
2893;DHT22;1456;51.840;12.184;2023-07-09T07:16:07;28.00;83.10
2893;DHT22;1456;51.840;12.184;2023-07-09T07:18:38;28.10;81.80
2893;DHT22;1456;51.840;12.184;2023-07-09T07:21:11;28.20;79.30
2893;DHT22;1456;51.840;12.184;2023-07-09T07:23:38;28.40;81.20
2893;DHT22;1456;51.840;12.184;2023-07-09T07:26:06;28.50;80.30
2893;DHT22;1456;51.840;12.184;2023-07-09T07:28:34;28.70;79.40
2893;DHT22;1456;51.840;12.184;2023-07-09T07:31:06;28.80;75.70
2893;DHT22;1456;51.840;12.184;2023-07-09T07:33:35;29.00;80.20
2893;DHT22;1456;51.840;12.184;2023-07-09T07:36:09;29.10;77.40
2893;DHT22;1456;51.840;12.184;2023-07-09T07:38:36;29.30;76.60
2893;DHT22;1456;51.840;12.184;2023-07-09T07:41:03;29.50;74.80
2893;DHT22;1456;51.840;12.184;2023-07-09T07:43:35;29.60;78.00
2893;DHT22;1456;51.840;12.184;2023-07-09T07:46:11;29.80;74.00
2893;DHT22;1456;51.840;12.184;2023-07-09T07:48:39;29.90;73.80
2893;DHT22;1456;51.840;12.184;2023-07-09T07:51:07;30.10;72.30
2893;DHT22;1456;51.840;12.184;2023-07-09T07:56:04;30.20;68.60
2893;DHT22;1456;51.840;12.184;2023-07-09T07:58:30;30.30;70.10
2893;DHT22;1456;51.840;12.184;2023-07-09T08:01:01;30.40;66.60
2893;DHT22;1456;51.840;12.184;2023-07-09T08:03:29;30.60;68.60
2893;DHT22;1456;51.840;12.184;2023-07-09T08:05:57;30.80;71.90
2893;DHT22;1456;51.840;12.184;2023-07-09T08:08:22;31.10;71.00
2893;DHT22;1456;51.840;12.184;2023-07-09T08:10:59;31.30;67.30
2893;DHT22;1456;51.840;12.184;2023-07-09T08:13:26;31.60;66.30
2893;DHT22;1456;51.840;12.184;2023-07-09T08:15:52;31.70;69.10
2893;DHT22;1456;51.840;12.184;2023-07-09T08:18:27;31.80;62.60
2893;DHT22;1456;51.840;12.184;2023-07-09T08:20:54;31.90;67.90
2893;DHT22;1456;51.840;12.184;2023-07-09T08:23:21;32.10;70.20
2893;DHT22;1456;51.840;12.184;2023-07-09T08:25:54;32.00;63.90
2893;DHT22;1456;51.840;12.184;2023-07-09T08:28:21;32.10;62.70
2893;DHT22;1456;51.840;12.184;2023-07-09T08:30:47;32.30;62.00
2893;DHT22;1456;51.840;12.184;2023-07-09T08:33:13;31.70;59.20
2893;DHT22;1456;51.840;12.184;2023-07-09T08:35:42;31.80;65.40
2893;DHT22;1456;51.840;12.184;2023-07-09T08:38:09;31.80;68.60
2893;DHT22;1456;51.840;12.184;2023-07-09T08:40:49;32.00;60.30
2893;DHT22;1456;51.840;12.184;2023-07-09T08:43:21;32.20;65.20
2893;DHT22;1456;51.840;12.184;2023-07-09T08:48:48;32.60;66.10
2893;DHT22;1456;51.840;12.184;2023-07-09T08:53:47;33.10;59.00
2893;DHT22;1456;51.840;12.184;2023-07-09T08:56:14;33.40;59.30
2893;DHT22;1456;51.840;12.184;2023-07-09T08:58:40;33.40;59.90
2893;DHT22;1456;51.840;12.184;2023-07-09T09:01:18;33.60;63.00
2893;DHT22;1456;51.840;12.184;2023-07-09T09:03:50;34.10;57.40
2893;DHT22;1456;51.840;12.184;2023-07-09T09:11:31;34.40;55.20
2893;DHT22;1456;51.840;12.184;2023-07-09T09:14:01;34.50;56.80
2893;DHT22;1456;51.840;12.184;2023-07-09T09:16:32;34.70;55.00
2893;DHT22;1456;51.840;12.184;2023-07-09T09:19:02;34.70;55.90
2893;DHT22;1456;51.840;12.184;2023-07-09T09:24:14;34.60;55.60
2893;DHT22;1456;51.840;12.184;2023-07-09T09:26:42;34.70;54.70
2893;DHT22;1456;51.840;12.184;2023-07-09T09:29:12;34.80;57.40
2893;DHT22;1456;51.840;12.184;2023-07-09T09:31:41;35.10;54.50
2893;DHT22;1456;51.840;12.184;2023-07-09T09:34:18;35.20;53.00
2893;DHT22;1456;51.840;12.184;2023-07-09T09:36:45;35.30;52.90
2893;DHT22;1456;51.840;12.184;2023-07-09T09:39:10;35.50;54.40
2893;DHT22;1456;51.840;12.184;2023-07-09T09:41:36;35.60;53.30
2893;DHT22;1456;51.840;12.184;2023-07-09T09:44:02;35.70;52.70
2893;DHT22;1456;51.840;12.184;2023-07-09T09:46:30;35.70;51.10
2893;DHT22;1456;51.840;12.184;2023-07-09T09:48:59;36.00;52.70
2893;DHT22;1456;51.840;12.184;2023-07-09T09:51:27;36.30;47.90
2893;DHT22;1456;51.840;12.184;2023-07-09T09:53:58;36.50;49.80
2893;DHT22;1456;51.840;12.184;2023-07-09T09:56:26;36.90;50.90
2893;DHT22;1456;51.840;12.184;2023-07-09T09:58:52;37.20;51.50
2893;DHT22;1456;51.840;12.184;2023-07-09T10:01:25;37.70;52.20
2893;DHT22;1456;51.840;12.184;2023-07-09T10:03:54;37.80;46.70
2893;DHT22;1456;51.840;12.184;2023-07-09T10:06:21;38.10;47.50
2893;DHT22;1456;51.840;12.184;2023-07-09T10:11:25;38.60;47.40
2893;DHT22;1456;51.840;12.184;2023-07-09T10:13:54;39.10;48.40
2893;DHT22;1456;51.840;12.184;2023-07-09T10:16:23;39.50;45.40
2893;DHT22;1456;51.840;12.184;2023-07-09T10:26:51;39.80;45.50
2893;DHT22;1456;51.840;12.184;2023-07-09T10:39:55;41.10;43.10
2893;DHT22;1456;51.840;12.184;2023-07-09T10:45:13;41.70;41.80
2893;DHT22;1456;51.840;12.184;2023-07-09T10:47:39;42.20;41.40
2893;DHT22;1456;51.840;12.184;2023-07-09T10:50:09;42.90;39.50
2893;DHT22;1456;51.840;12.184;2023-07-09T10:52:39;42.50;37.20
2893;DHT22;1456;51.840;12.184;2023-07-09T10:58:05;42.80;33.70
2893;DHT22;1456;51.840;12.184;2023-07-09T11:00:38;43.50;36.70
2893;DHT22;1456;51.840;12.184;2023-07-09T11:05:49;43.50;36.40
2893;DHT22;1456;51.840;12.184;2023-07-09T11:08:17;44.00;38.30
2893;DHT22;1456;51.840;12.184;2023-07-09T11:10:51;43.80;36.60
2893;DHT22;1456;51.840;12.184;2023-07-09T11:14:04;44.00;38.00
2893;DHT22;1456;51.840;12.184;2023-07-09T11:16:04;44.00;37.40
2893;DHT22;1456;51.840;12.184;2023-07-09T11:18:33;44.90;36.20
2893;DHT22;1456;51.840;12.184;2023-07-09T11:21:15;45.40;33.40
2893;DHT22;1456;51.840;12.184;2023-07-09T11:23:53;46.00;34.10
2893;DHT22;1456;51.840;12.184;2023-07-09T11:26:29;46.00;35.20
2893;DHT22;1456;51.840;12.184;2023-07-09T11:31:36;46.00;35.50
2893;DHT22;1456;51.840;12.184;2023-07-09T11:36:33;46.70;32.60
2893;DHT22;1456;51.840;12.184;2023-07-09T11:39:00;46.20;34.00
2893;DHT22;1456;51.840;12.184;2023-07-09T11:41:40;46.30;35.20
2893;DHT22;1456;51.840;12.184;2023-07-09T11:49:15;46.20;32.80
2893;DHT22;1456;51.840;12.184;2023-07-09T11:51:48;46.40;34.40
2893;DHT22;1456;51.840;12.184;2023-07-09T11:54:18;46.60;35.20
2893;DHT22;1456;51.840;12.184;2023-07-09T11:56:57;46.80;31.70
2893;DHT22;1456;51.840;12.184;2023-07-09T11:59:23;46.10;33.60
2893;DHT22;1456;51.840;12.184;2023-07-09T12:01:51;46.10;31.40
2893;DHT22;1456;51.840;12.184;2023-07-09T12:04:31;46.20;31.70
2893;DHT22;1456;51.840;12.184;2023-07-09T12:06:59;46.70;32.60
2893;DHT22;1456;51.840;12.184;2023-07-09T12:09:32;47.40;32.40
2893;DHT22;1456;51.840;12.184;2023-07-09T12:11:58;47.70;32.40
2893;DHT22;1456;51.840;12.184;2023-07-09T12:14:24;48.20;31.80
2893;DHT22;1456;51.840;12.184;2023-07-09T12:16:53;48.50;31.70
2893;DHT22;1456;51.840;12.184;2023-07-09T12:19:22;48.70;31.20
2893;DHT22;1456;51.840;12.184;2023-07-09T12:21:51;48.90;30.20
2893;DHT22;1456;51.840;12.184;2023-07-09T12:24:25;49.40;29.80
2893;DHT22;1456;51.840;12.184;2023-07-09T12:26:52;49.00;30.50
2893;DHT22;1456;51.840;12.184;2023-07-09T12:29:18;48.30;30.30
2893;DHT22;1456;51.840;12.184;2023-07-09T12:31:44;48.50;31.00
2893;DHT22;1456;51.840;12.184;2023-07-09T12:34:12;47.40;29.70
2893;DHT22;1456;51.840;12.184;2023-07-09T12:36:43;47.40;31.40
2893;DHT22;1456;51.840;12.184;2023-07-09T12:39:11;47.20;31.00
2893;DHT22;1456;51.840;12.184;2023-07-09T12:41:41;47.70;32.00
2893;DHT22;1456;51.840;12.184;2023-07-09T12:44:21;48.10;29.80
2893;DHT22;1456;51.840;12.184;2023-07-09T12:46:50;47.50;30.90
2893;DHT22;1456;51.840;12.184;2023-07-09T12:49:27;47.20;30.30
2893;DHT22;1456;51.840;12.184;2023-07-09T12:51:58;48.00;31.90
2893;DHT22;1456;51.840;12.184;2023-07-09T12:54:24;48.20;28.80
2893;DHT22;1456;51.840;12.184;2023-07-09T12:56:53;47.20;29.50
2893;DHT22;1456;51.840;12.184;2023-07-09T12:59:41;47.70;30.00
2893;DHT22;1456;51.840;12.184;2023-07-09T13:04:43;47.20;30.10
2893;DHT22;1456;51.840;12.184;2023-07-09T13:09:52;48.00;30.70
2893;DHT22;1456;51.840;12.184;2023-07-09T13:12:20;48.80;30.30
2893;DHT22;1456;51.840;12.184;2023-07-09T13:14:55;49.20;30.50
2893;DHT22;1456;51.840;12.184;2023-07-09T13:17:21;49.60;29.90
2893;DHT22;1456;51.840;12.184;2023-07-09T13:19:47;49.60;30.00
2893;DHT22;1456;51.840;12.184;2023-07-09T13:22:14;50.20;30.00
2893;DHT22;1456;51.840;12.184;2023-07-09T13:24:42;50.50;28.30
2893;DHT22;1456;51.840;12.184;2023-07-09T13:27:17;50.50;29.70
2893;DHT22;1456;51.840;12.184;2023-07-09T13:29:43;50.00;30.00
2893;DHT22;1456;51.840;12.184;2023-07-09T13:32:10;50.20;29.60
2893;DHT22;1456;51.840;12.184;2023-07-09T13:34:36;49.30;28.00
2893;DHT22;1456;51.840;12.184;2023-07-09T13:37:02;49.10;28.70
2893;DHT22;1456;51.840;12.184;2023-07-09T13:39:30;50.40;29.60
2893;DHT22;1456;51.840;12.184;2023-07-09T13:41:56;50.80;29.70
2893;DHT22;1456;51.840;12.184;2023-07-09T13:44:28;50.30;28.40
2893;DHT22;1456;51.840;12.184;2023-07-09T13:46:55;50.70;29.50
2893;DHT22;1456;51.840;12.184;2023-07-09T13:49:25;51.00;29.20
2893;DHT22;1456;51.840;12.184;2023-07-09T13:51:58;51.40;28.40
2893;DHT22;1456;51.840;12.184;2023-07-09T13:54:31;51.90;27.50
2893;DHT22;1456;51.840;12.184;2023-07-09T13:57:03;52.00;27.90
2893;DHT22;1456;51.840;12.184;2023-07-09T13:59:29;52.20;26.60
2893;DHT22;1456;51.840;12.184;2023-07-09T14:01:56;52.60;28.30
2893;DHT22;1456;51.840;12.184;2023-07-09T14:04:24;52.50;28.50
2893;DHT22;1456;51.840;12.184;2023-07-09T14:06:54;52.60;28.90
2893;DHT22;1456;51.840;12.184;2023-07-09T14:09:22;52.60;28.40
2893;DHT22;1456;51.840;12.184;2023-07-09T14:11:52;53.10;30.20
2893;DHT22;1456;51.840;12.184;2023-07-09T14:14:19;53.50;30.00
2893;DHT22;1456;51.840;12.184;2023-07-09T14:16:46;53.90;28.10
2893;DHT22;1456;51.840;12.184;2023-07-09T14:19:16;52.80;27.20
2893;DHT22;1456;51.840;12.184;2023-07-09T14:21:42;52.70;28.50
2893;DHT22;1456;51.840;12.184;2023-07-09T14:26:42;52.40;28.60
2893;DHT22;1456;51.840;12.184;2023-07-09T14:29:09;52.90;27.90
2893;DHT22;1456;51.840;12.184;2023-07-09T14:31:37;52.80;29.10
2893;DHT22;1456;51.840;12.184;2023-07-09T14:34:27;52.50;28.00
2893;DHT22;1456;51.840;12.184;2023-07-09T14:36:55;51.70;26.90
2893;DHT22;1456;51.840;12.184;2023-07-09T14:39:22;52.40;28.90
2893;DHT22;1456;51.840;12.184;2023-07-09T14:41:48;52.70;27.50
2893;DHT22;1456;51.840;12.184;2023-07-09T14:44:27;52.00;26.10
2893;DHT22;1456;51.840;12.184;2023-07-09T14:46:58;52.00;27.50
2893;DHT22;1456;51.840;12.184;2023-07-09T14:49:28;52.40;28.40
2893;DHT22;1456;51.840;12.184;2023-07-09T14:51:55;51.80;27.80
2893;DHT22;1456;51.840;12.184;2023-07-09T14:54:26;52.10;28.20
2893;DHT22;1456;51.840;12.184;2023-07-09T14:56:53;51.70;27.10
2893;DHT22;1456;51.840;12.184;2023-07-09T14:59:20;51.60;27.80
2893;DHT22;1456;51.840;12.184;2023-07-09T15:01:46;51.70;25.60
2893;DHT22;1456;51.840;12.184;2023-07-09T15:06:53;50.80;27.20
2893;DHT22;1456;51.840;12.184;2023-07-09T15:09:22;51.00;26.40
2893;DHT22;1456;51.840;12.184;2023-07-09T15:11:50;51.20;26.90
2893;DHT22;1456;51.840;12.184;2023-07-09T15:14:16;51.00;28.30
2893;DHT22;1456;51.840;12.184;2023-07-09T15:16:42;51.30;27.40
2893;DHT22;1456;51.840;12.184;2023-07-09T15:19:14;50.90;27.40
2893;DHT22;1456;51.840;12.184;2023-07-09T15:21:45;51.00;27.50
2893;DHT22;1456;51.840;12.184;2023-07-09T15:24:25;51.60;26.80
2893;DHT22;1456;51.840;12.184;2023-07-09T15:26:53;51.30;27.00
2893;DHT22;1456;51.840;12.184;2023-07-09T15:29:20;50.80;27.40
2893;DHT22;1456;51.840;12.184;2023-07-09T15:31:47;50.30;27.20
2893;DHT22;1456;51.840;12.184;2023-07-09T15:34:12;49.30;25.00
2893;DHT22;1456;51.840;12.184;2023-07-09T15:36:43;49.60;28.30
2893;DHT22;1456;51.840;12.184;2023-07-09T15:39:13;48.70;26.40
2893;DHT22;1456;51.840;12.184;2023-07-09T15:41:39;49.20;27.10
2893;DHT22;1456;51.840;12.184;2023-07-09T15:44:07;49.20;27.30
2893;DHT22;1456;51.840;12.184;2023-07-09T15:46:35;49.00;26.40
2893;DHT22;1456;51.840;12.184;2023-07-09T15:49:01;48.90;27.40
2893;DHT22;1456;51.840;12.184;2023-07-09T15:51:30;48.70;26.80
2893;DHT22;1456;51.840;12.184;2023-07-09T15:53:57;49.10;27.50
2893;DHT22;1456;51.840;12.184;2023-07-09T15:56:24;48.90;26.50
2893;DHT22;1456;51.840;12.184;2023-07-09T15:58:52;49.10;26.40
2893;DHT22;1456;51.840;12.184;2023-07-09T16:01:27;49.30;26.80
2893;DHT22;1456;51.840;12.184;2023-07-09T16:03:58;50.00;27.00
2893;DHT22;1456;51.840;12.184;2023-07-09T16:06:24;49.80;25.80
2893;DHT22;1456;51.840;12.184;2023-07-09T16:08:51;49.80;25.80
2893;DHT22;1456;51.840;12.184;2023-07-09T16:11:18;50.00;27.00
2893;DHT22;1456;51.840;12.184;2023-07-09T16:13:44;50.80;27.20
2893;DHT22;1456;51.840;12.184;2023-07-09T16:16:14;51.00;26.20
2893;DHT22;1456;51.840;12.184;2023-07-09T16:18:40;51.00;26.70
2893;DHT22;1456;51.840;12.184;2023-07-09T16:21:39;51.20;26.60
2893;DHT22;1456;51.840;12.184;2023-07-09T16:23:58;51.60;28.40
2893;DHT22;1456;51.840;12.184;2023-07-09T16:26:27;51.90;26.30
2893;DHT22;1456;51.840;12.184;2023-07-09T16:28:52;51.00;26.50
2893;DHT22;1456;51.840;12.184;2023-07-09T16:31:18;50.90;26.90
2893;DHT22;1456;51.840;12.184;2023-07-09T16:33:44;49.40;27.50
2893;DHT22;1456;51.840;12.184;2023-07-09T16:36:17;48.70;28.50
2893;DHT22;1456;51.840;12.184;2023-07-09T16:38:44;48.70;27.80
2893;DHT22;1456;51.840;12.184;2023-07-09T16:41:10;48.20;27.70
2893;DHT22;1456;51.840;12.184;2023-07-09T16:43:38;48.00;28.50
2893;DHT22;1456;51.840;12.184;2023-07-09T16:46:14;48.00;29.10
2893;DHT22;1456;51.840;12.184;2023-07-09T16:48:40;47.70;30.00
2893;DHT22;1456;51.840;12.184;2023-07-09T16:51:10;47.60;29.10
2893;DHT22;1456;51.840;12.184;2023-07-09T16:53:36;48.50;29.40
2893;DHT22;1456;51.840;12.184;2023-07-09T16:56:02;48.60;29.60
2893;DHT22;1456;51.840;12.184;2023-07-09T16:58:32;48.50;29.00
2893;DHT22;1456;51.840;12.184;2023-07-09T17:06:17;47.10;30.10
2893;DHT22;1456;51.840;12.184;2023-07-09T17:08:49;46.90;30.00
2893;DHT22;1456;51.840;12.184;2023-07-09T17:11:15;46.90;29.30
2893;DHT22;1456;51.840;12.184;2023-07-09T17:13:42;46.50;29.00
2893;DHT22;1456;51.840;12.184;2023-07-09T17:16:07;45.70;28.40
2893;DHT22;1456;51.840;12.184;2023-07-09T17:18:35;45.30;29.60
2893;DHT22;1456;51.840;12.184;2023-07-09T17:21:02;44.50;28.80
2893;DHT22;1456;51.840;12.184;2023-07-09T17:23:29;42.80;30.80
2893;DHT22;1456;51.840;12.184;2023-07-09T17:25:57;41.50;30.00
2893;DHT22;1456;51.840;12.184;2023-07-09T17:28:29;40.10;30.20
2893;DHT22;1456;51.840;12.184;2023-07-09T17:30:57;39.10;30.70
2893;DHT22;1456;51.840;12.184;2023-07-09T17:33:23;38.40;31.90
2893;DHT22;1456;51.840;12.184;2023-07-09T17:35:55;37.90;31.50
2893;DHT22;1456;51.840;12.184;2023-07-09T17:38:33;37.60;33.50
2893;DHT22;1456;51.840;12.184;2023-07-09T17:41:00;37.50;32.40
2893;DHT22;1456;51.840;12.184;2023-07-09T17:43:27;37.30;33.40
2893;DHT22;1456;51.840;12.184;2023-07-09T17:45:54;37.20;33.40
2893;DHT22;1456;51.840;12.184;2023-07-09T17:48:29;37.00;34.40
2893;DHT22;1456;51.840;12.184;2023-07-09T17:50:57;36.80;34.30
2893;DHT22;1456;51.840;12.184;2023-07-09T17:53:28;36.40;35.80
2893;DHT22;1456;51.840;12.184;2023-07-09T17:55:56;36.10;35.00
2893;DHT22;1456;51.840;12.184;2023-07-09T17:58:35;35.70;35.70
2893;DHT22;1456;51.840;12.184;2023-07-09T18:01:04;35.20;35.30
2893;DHT22;1456;51.840;12.184;2023-07-09T18:03:37;35.00;37.20
2893;DHT22;1456;51.840;12.184;2023-07-09T18:06:04;35.00;36.40
2893;DHT22;1456;51.840;12.184;2023-07-09T18:08:32;34.90;36.20
2893;DHT22;1456;51.840;12.184;2023-07-09T18:11:02;34.80;36.70
2893;DHT22;1456;51.840;12.184;2023-07-09T18:13:29;34.60;38.70
2893;DHT22;1456;51.840;12.184;2023-07-09T18:15:55;34.40;38.40
2893;DHT22;1456;51.840;12.184;2023-07-09T18:18:23;34.20;37.90
2893;DHT22;1456;51.840;12.184;2023-07-09T18:20:50;34.20;41.70